sensor_id;sensor_type;location;lat;lon;timestamp;P1;durP1;ratioP1;P2;durP2;ratioP2
32810;SDS011;65470;47.324;8.548;2022-12-07T00:01:10;35.35;;;25.52;;
32810;SDS011;65470;47.324;8.548;2022-12-07T00:03:38;33.80;;;24.98;;
32810;SDS011;65470;47.324;8.548;2022-12-07T00:06:05;34.35;;;25.10;;
32810;SDS011;65470;47.324;8.548;2022-12-07T00:08:32;35.25;;;25.95;;
32810;SDS011;65470;47.324;8.548;2022-12-07T00:11:02;35.08;;;25.80;;
32810;SDS011;65470;47.324;8.548;2022-12-07T00:14:01;34.80;;;25.95;;
32810;SDS011;65470;47.324;8.548;2022-12-07T00:16:30;35.45;;;27.42;;
32810;SDS011;65470;47.324;8.548;2022-12-07T00:18:57;37.33;;;26.58;;
32810;SDS011;65470;47.324;8.548;2022-12-07T00:21:24;36.00;;;26.40;;
32810;SDS011;65470;47.324;8.548;2022-12-07T00:23:52;35.33;;;26.83;;
32810;SDS011;65470;47.324;8.548;2022-12-07T00:26:20;38.78;;;26.25;;
32810;SDS011;65470;47.324;8.548;2022-12-07T00:28:54;36.10;;;25.77;;
32810;SDS011;65470;47.324;8.548;2022-12-07T00:31:22;37.22;;;26.02;;
32810;SDS011;65470;47.324;8.548;2022-12-07T00:33:50;35.78;;;25.83;;
32810;SDS011;65470;47.324;8.548;2022-12-07T00:36:17;36.65;;;24.83;;
32810;SDS011;65470;47.324;8.548;2022-12-07T00:38:44;34.47;;;25.15;;
32810;SDS011;65470;47.324;8.548;2022-12-07T00:41:14;34.05;;;24.90;;
32810;SDS011;65470;47.324;8.548;2022-12-07T00:43:42;34.85;;;24.60;;
32810;SDS011;65470;47.324;8.548;2022-12-07T00:46:08;32.50;;;24.40;;
32810;SDS011;65470;47.324;8.548;2022-12-07T00:48:34;38.53;;;26.23;;
32810;SDS011;65470;47.324;8.548;2022-12-07T00:51:00;38.15;;;26.58;;
32810;SDS011;65470;47.324;8.548;2022-12-07T00:53:26;34.22;;;24.25;;
32810;SDS011;65470;47.324;8.548;2022-12-07T00:55:51;36.03;;;25.42;;
32810;SDS011;65470;47.324;8.548;2022-12-07T00:58:17;39.38;;;25.67;;
32810;SDS011;65470;47.324;8.548;2022-12-07T01:00:44;34.70;;;26.15;;
32810;SDS011;65470;47.324;8.548;2022-12-07T01:03:10;35.30;;;25.92;;
32810;SDS011;65470;47.324;8.548;2022-12-07T01:05:37;36.70;;;26.25;;
32810;SDS011;65470;47.324;8.548;2022-12-07T01:08:03;34.25;;;25.92;;
32810;SDS011;65470;47.324;8.548;2022-12-07T01:10:29;38.47;;;27.90;;
32810;SDS011;65470;47.324;8.548;2022-12-07T01:12:56;36.55;;;25.90;;
32810;SDS011;65470;47.324;8.548;2022-12-07T01:15:23;34.85;;;24.60;;
32810;SDS011;65470;47.324;8.548;2022-12-07T01:17:49;35.70;;;25.90;;
32810;SDS011;65470;47.324;8.548;2022-12-07T01:20:15;36.47;;;25.50;;
32810;SDS011;65470;47.324;8.548;2022-12-07T01:22:41;36.50;;;25.17;;
32810;SDS011;65470;47.324;8.548;2022-12-07T01:25:08;33.72;;;24.73;;
32810;SDS011;65470;47.324;8.548;2022-12-07T01:27:34;34.60;;;25.98;;
32810;SDS011;65470;47.324;8.548;2022-12-07T01:30:00;35.53;;;24.63;;
32810;SDS011;65470;47.324;8.548;2022-12-07T01:32:26;34.75;;;26.15;;
32810;SDS011;65470;47.324;8.548;2022-12-07T01:34:52;35.70;;;25.27;;
32810;SDS011;65470;47.324;8.548;2022-12-07T01:37:18;36.28;;;25.92;;
32810;SDS011;65470;47.324;8.548;2022-12-07T01:39:44;36.17;;;25.88;;
32810;SDS011;65470;47.324;8.548;2022-12-07T01:42:12;34.70;;;25.23;;
32810;SDS011;65470;47.324;8.548;2022-12-07T01:47:41;34.42;;;25.27;;
32810;SDS011;65470;47.324;8.548;2022-12-07T01:50:11;34.45;;;25.50;;
32810;SDS011;65470;47.324;8.548;2022-12-07T01:52:36;35.50;;;25.15;;
32810;SDS011;65470;47.324;8.548;2022-12-07T01:55:05;37.67;;;26.85;;
32810;SDS011;65470;47.324;8.548;2022-12-07T01:57:34;33.60;;;24.58;;
32810;SDS011;65470;47.324;8.548;2022-12-07T02:00:03;34.22;;;25.23;;
32810;SDS011;65470;47.324;8.548;2022-12-07T02:02:32;33.30;;;24.92;;
32810;SDS011;65470;47.324;8.548;2022-12-07T02:05:01;34.20;;;25.70;;
32810;SDS011;65470;47.324;8.548;2022-12-07T02:07:29;35.92;;;25.73;;
32810;SDS011;65470;47.324;8.548;2022-12-07T02:09:57;35.10;;;25.88;;
32810;SDS011;65470;47.324;8.548;2022-12-07T02:12:36;40.22;;;26.38;;
32810;SDS011;65470;47.324;8.548;2022-12-07T02:15:02;40.53;;;27.77;;
32810;SDS011;65470;47.324;8.548;2022-12-07T02:17:32;36.35;;;26.20;;
32810;SDS011;65470;47.324;8.548;2022-12-07T02:20:13;38.50;;;26.83;;
32810;SDS011;65470;47.324;8.548;2022-12-07T02:25:33;39.03;;;26.35;;
32810;SDS011;65470;47.324;8.548;2022-12-07T02:30:48;36.85;;;26.75;;
32810;SDS011;65470;47.324;8.548;2022-12-07T02:33:18;37.63;;;26.95;;
32810;SDS011;65470;47.324;8.548;2022-12-07T02:41:33;40.33;;;28.15;;
32810;SDS011;65470;47.324;8.548;2022-12-07T02:44:10;35.55;;;26.40;;
32810;SDS011;65470;47.324;8.548;2022-12-07T02:46:42;38.33;;;27.65;;
32810;SDS011;65470;47.324;8.548;2022-12-07T02:49:11;39.00;;;28.02;;
32810;SDS011;65470;47.324;8.548;2022-12-07T02:51:43;38.25;;;27.42;;
32810;SDS011;65470;47.324;8.548;2022-12-07T02:54:15;40.22;;;28.23;;
32810;SDS011;65470;47.324;8.548;2022-12-07T03:07:59;38.95;;;27.02;;
32810;SDS011;65470;47.324;8.548;2022-12-07T03:15:58;39.80;;;27.30;;
32810;SDS011;65470;47.324;8.548;2022-12-07T03:18:44;39.88;;;28.95;;
32810;SDS011;65470;47.324;8.548;2022-12-07T03:21:13;39.58;;;27.52;;
32810;SDS011;65470;47.324;8.548;2022-12-07T03:23:42;39.83;;;28.08;;
32810;SDS011;65470;47.324;8.548;2022-12-07T03:26:12;38.47;;;27.50;;
32810;SDS011;65470;47.324;8.548;2022-12-07T03:28:42;36.95;;;26.48;;
32810;SDS011;65470;47.324;8.548;2022-12-07T03:31:14;40.83;;;27.15;;
32810;SDS011;65470;47.324;8.548;2022-12-07T03:33:47;40.20;;;28.13;;
32810;SDS011;65470;47.324;8.548;2022-12-07T03:41:26;39.72;;;28.35;;
32810;SDS011;65470;47.324;8.548;2022-12-07T03:43:54;39.30;;;27.92;;
32810;SDS011;65470;47.324;8.548;2022-12-07T03:54:22;36.92;;;26.27;;
32810;SDS011;65470;47.324;8.548;2022-12-07T03:56:51;37.33;;;25.73;;
32810;SDS011;65470;47.324;8.548;2022-12-07T03:59:18;38.45;;;26.35;;
32810;SDS011;65470;47.324;8.548;2022-12-07T04:01:51;39.25;;;27.90;;
32810;SDS011;65470;47.324;8.548;2022-12-07T04:04:19;40.58;;;27.70;;
32810;SDS011;65470;47.324;8.548;2022-12-07T04:06:44;38.97;;;26.92;;
32810;SDS011;65470;47.324;8.548;2022-12-07T04:09:10;36.45;;;26.75;;
32810;SDS011;65470;47.324;8.548;2022-12-07T04:11:36;39.22;;;26.52;;
32810;SDS011;65470;47.324;8.548;2022-12-07T04:14:01;38.85;;;28.10;;
32810;SDS011;65470;47.324;8.548;2022-12-07T04:16:46;39.10;;;26.52;;
32810;SDS011;65470;47.324;8.548;2022-12-07T04:19:12;40.33;;;27.75;;
32810;SDS011;65470;47.324;8.548;2022-12-07T04:21:38;39.03;;;26.77;;
32810;SDS011;65470;47.324;8.548;2022-12-07T04:24:04;37.80;;;25.98;;
32810;SDS011;65470;47.324;8.548;2022-12-07T04:26:30;38.83;;;27.38;;
32810;SDS011;65470;47.324;8.548;2022-12-07T04:28:56;40.13;;;27.50;;
32810;SDS011;65470;47.324;8.548;2022-12-07T04:31:22;37.65;;;26.38;;
32810;SDS011;65470;47.324;8.548;2022-12-07T04:33:47;37.05;;;25.75;;
32810;SDS011;65470;47.324;8.548;2022-12-07T04:36:13;40.20;;;27.88;;
32810;SDS011;65470;47.324;8.548;2022-12-07T04:38:39;39.35;;;26.00;;
32810;SDS011;65470;47.324;8.548;2022-12-07T04:41:05;37.00;;;25.83;;
32810;SDS011;65470;47.324;8.548;2022-12-07T04:43:32;38.78;;;26.23;;
32810;SDS011;65470;47.324;8.548;2022-12-07T04:45:59;40.53;;;27.55;;
32810;SDS011;65470;47.324;8.548;2022-12-07T04:48:24;38.17;;;26.85;;
32810;SDS011;65470;47.324;8.548;2022-12-07T04:50:50;38.63;;;26.65;;
32810;SDS011;65470;47.324;8.548;2022-12-07T04:53:15;39.60;;;26.13;;
32810;SDS011;65470;47.324;8.548;2022-12-07T04:55:41;40.97;;;27.55;;
32810;SDS011;65470;47.324;8.548;2022-12-07T04:58:07;39.58;;;26.45;;
32810;SDS011;65470;47.324;8.548;2022-12-07T05:00:32;44.25;;;28.33;;
32810;SDS011;65470;47.324;8.548;2022-12-07T05:02:58;39.50;;;26.95;;
32810;SDS011;65470;47.324;8.548;2022-12-07T05:05:24;44.95;;;27.77;;
32810;SDS011;65470;47.324;8.548;2022-12-07T05:07:49;41.58;;;27.40;;
32810;SDS011;65470;47.324;8.548;2022-12-07T05:10:15;46.63;;;30.55;;
32810;SDS011;65470;47.324;8.548;2022-12-07T05:12:41;43.78;;;28.50;;
32810;SDS011;65470;47.324;8.548;2022-12-07T05:15:07;47.92;;;29.65;;
32810;SDS011;65470;47.324;8.548;2022-12-07T05:17:33;47.15;;;29.85;;
32810;SDS011;65470;47.324;8.548;2022-12-07T05:19:59;49.70;;;29.60;;
32810;SDS011;65470;47.324;8.548;2022-12-07T05:22:24;46.88;;;29.40;;
32810;SDS011;65470;47.324;8.548;2022-12-07T05:24:53;48.83;;;30.05;;
32810;SDS011;65470;47.324;8.548;2022-12-07T05:27:19;49.78;;;29.27;;
32810;SDS011;65470;47.324;8.548;2022-12-07T05:29:45;45.50;;;28.73;;
32810;SDS011;65470;47.324;8.548;2022-12-07T05:32:10;52.58;;;29.98;;
32810;SDS011;65470;47.324;8.548;2022-12-07T05:34:36;47.85;;;29.50;;
32810;SDS011;65470;47.324;8.548;2022-12-07T05:37:02;50.25;;;31.30;;
32810;SDS011;65470;47.324;8.548;2022-12-07T05:39:27;44.83;;;29.17;;
32810;SDS011;65470;47.324;8.548;2022-12-07T05:41:53;44.50;;;29.00;;
32810;SDS011;65470;47.324;8.548;2022-12-07T05:44:37;44.88;;;29.00;;
32810;SDS011;65470;47.324;8.548;2022-12-07T05:47:07;43.38;;;29.20;;
32810;SDS011;65470;47.324;8.548;2022-12-07T05:49:33;49.67;;;30.02;;
32810;SDS011;65470;47.324;8.548;2022-12-07T05:51:58;45.60;;;29.73;;
32810;SDS011;65470;47.324;8.548;2022-12-07T05:54:24;48.95;;;30.80;;
32810;SDS011;65470;47.324;8.548;2022-12-07T05:56:50;48.33;;;30.63;;
32810;SDS011;65470;47.324;8.548;2022-12-07T05:59:16;51.80;;;31.50;;
32810;SDS011;65470;47.324;8.548;2022-12-07T06:01:48;50.25;;;30.52;;
32810;SDS011;65470;47.324;8.548;2022-12-07T06:04:18;48.88;;;30.02;;
32810;SDS011;65470;47.324;8.548;2022-12-07T06:06:43;47.00;;;30.40;;
32810;SDS011;65470;47.324;8.548;2022-12-07T06:09:09;48.42;;;30.88;;
32810;SDS011;65470;47.324;8.548;2022-12-07T06:11:35;52.13;;;29.80;;
32810;SDS011;65470;47.324;8.548;2022-12-07T06:14:19;48.67;;;29.95;;
32810;SDS011;65470;47.324;8.548;2022-12-07T06:16:45;49.75;;;31.02;;
32810;SDS011;65470;47.324;8.548;2022-12-07T06:19:11;47.67;;;29.83;;
32810;SDS011;65470;47.324;8.548;2022-12-07T06:21:36;50.92;;;30.45;;
32810;SDS011;65470;47.324;8.548;2022-12-07T06:24:02;48.92;;;30.85;;
32810;SDS011;65470;47.324;8.548;2022-12-07T06:26:28;52.78;;;32.90;;
32810;SDS011;65470;47.324;8.548;2022-12-07T06:28:53;51.33;;;31.55;;
32810;SDS011;65470;47.324;8.548;2022-12-07T06:31:19;60.58;;;33.13;;
32810;SDS011;65470;47.324;8.548;2022-12-07T06:33:45;54.33;;;31.02;;
32810;SDS011;65470;47.324;8.548;2022-12-07T06:36:11;57.08;;;33.55;;
32810;SDS011;65470;47.324;8.548;2022-12-07T06:38:36;53.15;;;32.53;;
32810;SDS011;65470;47.324;8.548;2022-12-07T06:41:02;58.08;;;33.30;;
32810;SDS011;65470;47.324;8.548;2022-12-07T06:43:28;57.85;;;32.30;;
32810;SDS011;65470;47.324;8.548;2022-12-07T06:45:54;55.10;;;32.22;;
32810;SDS011;65470;47.324;8.548;2022-12-07T06:48:20;55.25;;;33.47;;
32810;SDS011;65470;47.324;8.548;2022-12-07T06:50:46;63.90;;;33.42;;
32810;SDS011;65470;47.324;8.548;2022-12-07T06:53:12;62.58;;;34.53;;
32810;SDS011;65470;47.324;8.548;2022-12-07T06:55:38;56.55;;;33.30;;
32810;SDS011;65470;47.324;8.548;2022-12-07T06:58:03;55.17;;;33.85;;
32810;SDS011;65470;47.324;8.548;2022-12-07T07:00:29;61.08;;;33.80;;
32810;SDS011;65470;47.324;8.548;2022-12-07T07:02:55;56.53;;;32.63;;
32810;SDS011;65470;47.324;8.548;2022-12-07T07:05:20;58.45;;;34.65;;
32810;SDS011;65470;47.324;8.548;2022-12-07T07:07:49;59.60;;;33.38;;
32810;SDS011;65470;47.324;8.548;2022-12-07T07:10:15;56.17;;;32.60;;
32810;SDS011;65470;47.324;8.548;2022-12-07T07:12:41;56.40;;;33.55;;
32810;SDS011;65470;47.324;8.548;2022-12-07T07:15:06;57.60;;;32.97;;
32810;SDS011;65470;47.324;8.548;2022-12-07T07:17:33;57.42;;;33.72;;
32810;SDS011;65470;47.324;8.548;2022-12-07T07:19:58;67.20;;;34.72;;
32810;SDS011;65470;47.324;8.548;2022-12-07T07:22:24;62.42;;;33.75;;
32810;SDS011;65470;47.324;8.548;2022-12-07T07:24:49;57.13;;;34.28;;
32810;SDS011;65470;47.324;8.548;2022-12-07T07:27:15;65.40;;;35.70;;
32810;SDS011;65470;47.324;8.548;2022-12-07T07:29:41;65.70;;;37.88;;
32810;SDS011;65470;47.324;8.548;2022-12-07T07:32:07;67.35;;;37.13;;
32810;SDS011;65470;47.324;8.548;2022-12-07T07:34:33;59.38;;;34.65;;
32810;SDS011;65470;47.324;8.548;2022-12-07T07:36:59;61.10;;;35.75;;
32810;SDS011;65470;47.324;8.548;2022-12-07T07:39:24;58.28;;;34.55;;
32810;SDS011;65470;47.324;8.548;2022-12-07T07:41:50;62.70;;;34.95;;
32810;SDS011;65470;47.324;8.548;2022-12-07T07:44:16;62.42;;;35.00;;
32810;SDS011;65470;47.324;8.548;2022-12-07T07:46:41;62.83;;;37.30;;
32810;SDS011;65470;47.324;8.548;2022-12-07T07:49:08;70.90;;;36.47;;
32810;SDS011;65470;47.324;8.548;2022-12-07T07:51:35;68.93;;;36.15;;
32810;SDS011;65470;47.324;8.548;2022-12-07T07:54:01;69.65;;;38.08;;
32810;SDS011;65470;47.324;8.548;2022-12-07T07:56:27;66.95;;;37.15;;
32810;SDS011;65470;47.324;8.548;2022-12-07T07:58:52;67.80;;;37.70;;
32810;SDS011;65470;47.324;8.548;2022-12-07T08:01:18;67.28;;;37.67;;
32810;SDS011;65470;47.324;8.548;2022-12-07T08:03:47;72.85;;;37.47;;
32810;SDS011;65470;47.324;8.548;2022-12-07T08:06:13;68.72;;;37.97;;
32810;SDS011;65470;47.324;8.548;2022-12-07T08:08:38;69.60;;;39.47;;
32810;SDS011;65470;47.324;8.548;2022-12-07T08:11:05;69.85;;;39.17;;
32810;SDS011;65470;47.324;8.548;2022-12-07T08:13:31;71.43;;;40.47;;
32810;SDS011;65470;47.324;8.548;2022-12-07T08:15:56;74.28;;;38.15;;
32810;SDS011;65470;47.324;8.548;2022-12-07T08:18:22;75.97;;;39.92;;
32810;SDS011;65470;47.324;8.548;2022-12-07T08:20:48;80.72;;;41.90;;
32810;SDS011;65470;47.324;8.548;2022-12-07T08:23:14;76.38;;;39.72;;
32810;SDS011;65470;47.324;8.548;2022-12-07T08:25:39;73.90;;;38.65;;
32810;SDS011;65470;47.324;8.548;2022-12-07T08:28:05;75.53;;;40.13;;
32810;SDS011;65470;47.324;8.548;2022-12-07T08:30:31;74.50;;;38.50;;
32810;SDS011;65470;47.324;8.548;2022-12-07T08:32:57;80.20;;;40.70;;
32810;SDS011;65470;47.324;8.548;2022-12-07T08:35:24;81.53;;;41.40;;
32810;SDS011;65470;47.324;8.548;2022-12-07T08:37:49;67.35;;;38.13;;
32810;SDS011;65470;47.324;8.548;2022-12-07T08:40:15;73.22;;;38.22;;
32810;SDS011;65470;47.324;8.548;2022-12-07T08:42:43;67.88;;;37.47;;
32810;SDS011;65470;47.324;8.548;2022-12-07T08:45:13;75.63;;;39.67;;
32810;SDS011;65470;47.324;8.548;2022-12-07T08:47:41;76.28;;;38.60;;
32810;SDS011;65470;47.324;8.548;2022-12-07T08:50:14;74.22;;;38.28;;
32810;SDS011;65470;47.324;8.548;2022-12-07T08:52:41;68.93;;;39.58;;
32810;SDS011;65470;47.324;8.548;2022-12-07T08:55:08;76.35;;;40.03;;
32810;SDS011;65470;47.324;8.548;2022-12-07T08:57:35;76.82;;;39.85;;
32810;SDS011;65470;47.324;8.548;2022-12-07T09:00:03;76.80;;;40.30;;
32810;SDS011;65470;47.324;8.548;2022-12-07T09:02:30;81.18;;;41.78;;
32810;SDS011;65470;47.324;8.548;2022-12-07T09:04:56;76.00;;;40.13;;
32810;SDS011;65470;47.324;8.548;2022-12-07T09:07:22;71.53;;;39.13;;
32810;SDS011;65470;47.324;8.548;2022-12-07T09:09:48;71.95;;;39.13;;
32810;SDS011;65470;47.324;8.548;2022-12-07T09:12:13;78.85;;;40.38;;
32810;SDS011;65470;47.324;8.548;2022-12-07T09:14:39;77.15;;;39.05;;
32810;SDS011;65470;47.324;8.548;2022-12-07T09:17:05;79.13;;;41.40;;
32810;SDS011;65470;47.324;8.548;2022-12-07T09:19:32;79.68;;;40.92;;
32810;SDS011;65470;47.324;8.548;2022-12-07T09:21:58;73.13;;;40.15;;
32810;SDS011;65470;47.324;8.548;2022-12-07T09:24:24;78.97;;;39.58;;
32810;SDS011;65470;47.324;8.548;2022-12-07T09:26:49;89.78;;;41.92;;
32810;SDS011;65470;47.324;8.548;2022-12-07T09:29:15;80.68;;;40.97;;
32810;SDS011;65470;47.324;8.548;2022-12-07T09:31:40;90.40;;;40.47;;
32810;SDS011;65470;47.324;8.548;2022-12-07T09:34:06;72.53;;;37.35;;
32810;SDS011;65470;47.324;8.548;2022-12-07T09:36:32;85.68;;;39.58;;
32810;SDS011;65470;47.324;8.548;2022-12-07T09:38:58;84.32;;;38.53;;
32810;SDS011;65470;47.324;8.548;2022-12-07T09:41:25;71.50;;;36.22;;
32810;SDS011;65470;47.324;8.548;2022-12-07T09:43:52;69.85;;;35.88;;
32810;SDS011;65470;47.324;8.548;2022-12-07T09:46:27;73.55;;;36.92;;
32810;SDS011;65470;47.324;8.548;2022-12-07T09:48:53;86.60;;;36.85;;
32810;SDS011;65470;47.324;8.548;2022-12-07T09:51:20;90.43;;;37.60;;
32810;SDS011;65470;47.324;8.548;2022-12-07T09:53:47;77.30;;;35.53;;
32810;SDS011;65470;47.324;8.548;2022-12-07T09:56:14;86.97;;;36.58;;
32810;SDS011;65470;47.324;8.548;2022-12-07T09:58:42;71.95;;;34.55;;
32810;SDS011;65470;47.324;8.548;2022-12-07T10:03:40;70.72;;;34.58;;
32810;SDS011;65470;47.324;8.548;2022-12-07T10:06:15;64.55;;;36.13;;
32810;SDS011;65470;47.324;8.548;2022-12-07T10:08:41;62.75;;;34.28;;
32810;SDS011;65470;47.324;8.548;2022-12-07T10:11:08;61.30;;;32.97;;
32810;SDS011;65470;47.324;8.548;2022-12-07T10:16:32;67.45;;;34.95;;
32810;SDS011;65470;47.324;8.548;2022-12-07T10:19:23;59.80;;;32.85;;
32810;SDS011;65470;47.324;8.548;2022-12-07T10:22:04;63.00;;;33.83;;
32810;SDS011;65470;47.324;8.548;2022-12-07T10:24:35;62.35;;;34.88;;
32810;SDS011;65470;47.324;8.548;2022-12-07T10:27:04;63.30;;;34.75;;
32810;SDS011;65470;47.324;8.548;2022-12-07T10:29:34;61.78;;;34.28;;
32810;SDS011;65470;47.324;8.548;2022-12-07T10:32:03;62.25;;;35.35;;
32810;SDS011;65470;47.324;8.548;2022-12-07T10:34:33;68.72;;;34.97;;
32810;SDS011;65470;47.324;8.548;2022-12-07T10:37:11;63.80;;;34.28;;
32810;SDS011;65470;47.324;8.548;2022-12-07T10:39:40;67.05;;;37.40;;
32810;SDS011;65470;47.324;8.548;2022-12-07T10:42:28;59.40;;;34.40;;
32810;SDS011;65470;47.324;8.548;2022-12-07T10:54:02;55.92;;;33.28;;
32810;SDS011;65470;47.324;8.548;2022-12-07T10:56:54;55.28;;;32.17;;
32810;SDS011;65470;47.324;8.548;2022-12-07T11:02:49;48.58;;;30.58;;
32810;SDS011;65470;47.324;8.548;2022-12-07T11:05:30;46.25;;;28.05;;
32810;SDS011;65470;47.324;8.548;2022-12-07T11:08:16;49.20;;;29.58;;
32810;SDS011;65470;47.324;8.548;2022-12-07T11:10:57;43.88;;;29.13;;
32810;SDS011;65470;47.324;8.548;2022-12-07T11:24:18;38.78;;;26.50;;
32810;SDS011;65470;47.324;8.548;2022-12-07T11:26:56;37.35;;;25.70;;
32810;SDS011;65470;47.324;8.548;2022-12-07T11:32:49;36.55;;;24.20;;
32810;SDS011;65470;47.324;8.548;2022-12-07T11:38:16;38.22;;;26.80;;
32810;SDS011;65470;47.324;8.548;2022-12-07T11:40:45;37.47;;;24.10;;
32810;SDS011;65470;47.324;8.548;2022-12-07T11:46:03;41.08;;;26.30;;
32810;SDS011;65470;47.324;8.548;2022-12-07T11:48:43;41.85;;;25.63;;
32810;SDS011;65470;47.324;8.548;2022-12-07T11:51:20;37.42;;;25.77;;
32810;SDS011;65470;47.324;8.548;2022-12-07T11:53:55;49.55;;;28.70;;
32810;SDS011;65470;47.324;8.548;2022-12-07T11:56:36;41.05;;;27.40;;
32810;SDS011;65470;47.324;8.548;2022-12-07T12:06:39;41.03;;;25.90;;
32810;SDS011;65470;47.324;8.548;2022-12-07T12:09:11;33.47;;;22.23;;
32810;SDS011;65470;47.324;8.548;2022-12-07T12:20:29;29.25;;;20.98;;
32810;SDS011;65470;47.324;8.548;2022-12-07T12:23:07;34.53;;;22.35;;
32810;SDS011;65470;47.324;8.548;2022-12-07T12:25:47;31.20;;;20.70;;
32810;SDS011;65470;47.324;8.548;2022-12-07T12:31:14;35.95;;;25.73;;
32810;SDS011;65470;47.324;8.548;2022-12-07T12:33:57;35.85;;;24.48;;
32810;SDS011;65470;47.324;8.548;2022-12-07T12:46:46;33.60;;;23.95;;
32810;SDS011;65470;47.324;8.548;2022-12-07T12:51:44;29.70;;;21.73;;
32810;SDS011;65470;47.324;8.548;2022-12-07T12:56:55;35.13;;;24.45;;
32810;SDS011;65470;47.324;8.548;2022-12-07T13:02:46;33.25;;;23.65;;
32810;SDS011;65470;47.324;8.548;2022-12-07T13:08:28;37.03;;;24.35;;
32810;SDS011;65470;47.324;8.548;2022-12-07T13:26:18;23.08;;;17.70;;
32810;SDS011;65470;47.324;8.548;2022-12-07T13:31:35;24.48;;;18.08;;
32810;SDS011;65470;47.324;8.548;2022-12-07T13:34:48;21.67;;;16.35;;
32810;SDS011;65470;47.324;8.548;2022-12-07T13:39:35;24.40;;;16.48;;
32810;SDS011;65470;47.324;8.548;2022-12-07T13:45:25;22.70;;;17.02;;
32810;SDS011;65470;47.324;8.548;2022-12-07T13:48:22;24.77;;;18.05;;
32810;SDS011;65470;47.324;8.548;2022-12-07T13:50:57;26.20;;;18.60;;
32810;SDS011;65470;47.324;8.548;2022-12-07T13:53:25;26.95;;;18.65;;
32810;SDS011;65470;47.324;8.548;2022-12-07T13:55:56;23.60;;;18.48;;
32810;SDS011;65470;47.324;8.548;2022-12-07T13:58:26;23.42;;;17.80;;
32810;SDS011;65470;47.324;8.548;2022-12-07T14:00:55;21.85;;;18.08;;
32810;SDS011;65470;47.324;8.548;2022-12-07T14:03:32;29.20;;;18.83;;
32810;SDS011;65470;47.324;8.548;2022-12-07T14:08:40;20.17;;;16.80;;
32810;SDS011;65470;47.324;8.548;2022-12-07T14:11:07;26.65;;;19.50;;
32810;SDS011;65470;47.324;8.548;2022-12-07T14:13:39;93.13;;;27.48;;
32810;SDS011;65470;47.324;8.548;2022-12-07T14:16:24;21.95;;;16.63;;
32810;SDS011;65470;47.324;8.548;2022-12-07T14:18:53;30.17;;;19.52;;
32810;SDS011;65470;47.324;8.548;2022-12-07T14:21:25;24.15;;;18.02;;
32810;SDS011;65470;47.324;8.548;2022-12-07T14:26:33;23.70;;;18.20;;
32810;SDS011;65470;47.324;8.548;2022-12-07T14:31:44;21.48;;;18.45;;
32810;SDS011;65470;47.324;8.548;2022-12-07T14:34:12;24.85;;;18.38;;
32810;SDS011;65470;47.324;8.548;2022-12-07T14:36:38;25.10;;;19.38;;
32810;SDS011;65470;47.324;8.548;2022-12-07T14:39:04;23.13;;;18.58;;
32810;SDS011;65470;47.324;8.548;2022-12-07T14:41:29;23.17;;;17.92;;
32810;SDS011;65470;47.324;8.548;2022-12-07T14:44:14;24.40;;;19.15;;
32810;SDS011;65470;47.324;8.548;2022-12-07T14:46:39;25.27;;;20.17;;
32810;SDS011;65470;47.324;8.548;2022-12-07T14:49:05;26.08;;;17.95;;
32810;SDS011;65470;47.324;8.548;2022-12-07T14:51:31;27.15;;;19.08;;
32810;SDS011;65470;47.324;8.548;2022-12-07T14:53:58;24.15;;;18.33;;
32810;SDS011;65470;47.324;8.548;2022-12-07T14:56:24;22.88;;;18.50;;
32810;SDS011;65470;47.324;8.548;2022-12-07T14:58:50;23.35;;;17.63;;
32810;SDS011;65470;47.324;8.548;2022-12-07T15:01:16;25.23;;;18.40;;
32810;SDS011;65470;47.324;8.548;2022-12-07T15:03:41;25.08;;;17.92;;
32810;SDS011;65470;47.324;8.548;2022-12-07T15:06:07;25.27;;;19.23;;
32810;SDS011;65470;47.324;8.548;2022-12-07T15:08:38;26.52;;;19.35;;
32810;SDS011;65470;47.324;8.548;2022-12-07T15:11:03;24.70;;;18.92;;
32810;SDS011;65470;47.324;8.548;2022-12-07T15:13:29;25.45;;;18.52;;
32810;SDS011;65470;47.324;8.548;2022-12-07T15:16:15;24.10;;;16.10;;
32810;SDS011;65470;47.324;8.548;2022-12-07T15:18:44;18.23;;;14.52;;
32810;SDS011;65470;47.324;8.548;2022-12-07T15:21:13;18.80;;;14.60;;
32810;SDS011;65470;47.324;8.548;2022-12-07T15:23:40;18.88;;;14.55;;
32810;SDS011;65470;47.324;8.548;2022-12-07T15:26:06;21.13;;;15.07;;
32810;SDS011;65470;47.324;8.548;2022-12-07T15:28:32;19.60;;;15.20;;
32810;SDS011;65470;47.324;8.548;2022-12-07T15:30:58;17.70;;;12.82;;
32810;SDS011;65470;47.324;8.548;2022-12-07T15:33:24;15.20;;;13.07;;
32810;SDS011;65470;47.324;8.548;2022-12-07T15:35:50;18.40;;;12.45;;
32810;SDS011;65470;47.324;8.548;2022-12-07T15:38:15;18.77;;;12.20;;
32810;SDS011;65470;47.324;8.548;2022-12-07T15:40:41;15.02;;;11.93;;
32810;SDS011;65470;47.324;8.548;2022-12-07T15:43:09;18.13;;;12.32;;
32810;SDS011;65470;47.324;8.548;2022-12-07T15:45:55;16.75;;;13.18;;
32810;SDS011;65470;47.324;8.548;2022-12-07T15:48:20;18.23;;;14.02;;
32810;SDS011;65470;47.324;8.548;2022-12-07T15:50:46;18.90;;;13.10;;
32810;SDS011;65470;47.324;8.548;2022-12-07T15:53:12;19.23;;;13.05;;
32810;SDS011;65470;47.324;8.548;2022-12-07T15:55:40;16.80;;;12.63;;
32810;SDS011;65470;47.324;8.548;2022-12-07T15:58:06;16.13;;;12.65;;
32810;SDS011;65470;47.324;8.548;2022-12-07T16:00:32;15.25;;;12.23;;
32810;SDS011;65470;47.324;8.548;2022-12-07T16:02:58;17.95;;;12.35;;
32810;SDS011;65470;47.324;8.548;2022-12-07T16:05:24;17.40;;;13.57;;
32810;SDS011;65470;47.324;8.548;2022-12-07T16:07:49;18.02;;;13.57;;
32810;SDS011;65470;47.324;8.548;2022-12-07T16:10:15;18.17;;;12.40;;
32810;SDS011;65470;47.324;8.548;2022-12-07T16:12:40;18.77;;;13.60;;
32810;SDS011;65470;47.324;8.548;2022-12-07T16:15:06;18.35;;;13.05;;
32810;SDS011;65470;47.324;8.548;2022-12-07T16:17:32;17.75;;;13.10;;
32810;SDS011;65470;47.324;8.548;2022-12-07T16:19:58;18.52;;;13.23;;
32810;SDS011;65470;47.324;8.548;2022-12-07T16:22:24;17.65;;;13.63;;
32810;SDS011;65470;47.324;8.548;2022-12-07T16:24:49;20.58;;;15.63;;
32810;SDS011;65470;47.324;8.548;2022-12-07T16:27:15;20.98;;;15.20;;
32810;SDS011;65470;47.324;8.548;2022-12-07T16:29:41;26.58;;;16.77;;
32810;SDS011;65470;47.324;8.548;2022-12-07T16:32:06;20.08;;;15.43;;
32810;SDS011;65470;47.324;8.548;2022-12-07T16:34:32;21.98;;;15.65;;
32810;SDS011;65470;47.324;8.548;2022-12-07T16:36:58;23.83;;;17.10;;
32810;SDS011;65470;47.324;8.548;2022-12-07T16:39:23;22.15;;;16.15;;
32810;SDS011;65470;47.324;8.548;2022-12-07T16:41:49;21.13;;;16.05;;
32810;SDS011;65470;47.324;8.548;2022-12-07T16:44:15;21.05;;;16.48;;
32810;SDS011;65470;47.324;8.548;2022-12-07T16:46:41;25.15;;;16.50;;
32810;SDS011;65470;47.324;8.548;2022-12-07T16:49:11;23.58;;;17.33;;
32810;SDS011;65470;47.324;8.548;2022-12-07T16:51:38;25.13;;;19.48;;
32810;SDS011;65470;47.324;8.548;2022-12-07T16:54:04;25.75;;;19.77;;
32810;SDS011;65470;47.324;8.548;2022-12-07T16:56:30;24.98;;;18.50;;
32810;SDS011;65470;47.324;8.548;2022-12-07T16:58:57;24.65;;;18.10;;
32810;SDS011;65470;47.324;8.548;2022-12-07T17:01:23;27.10;;;19.67;;
32810;SDS011;65470;47.324;8.548;2022-12-07T17:03:49;25.00;;;18.50;;